Flight Track Log - Related Links

Times and Time Zones

All times are in EDT time to prevent confusion due to time zone crossing. See the N210PM flight status page for this flight to view local times or setup timezone preferences in your user account.

Time Position Orientation Groundspeed Altitude Reporting Facility
EDT Latitude Longitude Course Direction KTS MPH feet Rate Location/Type
Thu 01:24:45 PM 36.1097 -115.1439 79° East 170 196 3,200  Level Los Angeles Center
Thu 01:26:11 PM 36.1214 -115.0689 79° East 180 207 5,700 2,082 Climbing Los Angeles Center
Thu 01:26:23 PM 36.1328 -115.0511 52° Northeast 181 208 6,600 2,516 Climbing Los Angeles Center
Thu 01:27:13 PM 36.1392 -114.9983 81° East 184 212 8,300 1,967 Climbing Los Angeles Center
Thu 01:27:24 PM 36.1389 -114.9903 92° East 184 212 8,600 1,839 Climbing Los Angeles Center
Thu 01:28:15 PM 36.1439 -114.9339 84° East 186 214 10,200 1,929 Climbing Los Angeles Center
Thu 01:28:20 PM 36.1450 -114.9297 72° East 190 219 10,400 1,619 Climbing Los Angeles Center
Thu 01:29:18 PM 36.1489 -114.8672 86° East 191 220 11,900 1,690 Climbing Los Angeles Center
Thu 01:29:31 PM 36.1508 -114.8478 83° East 199 229 12,400 1,180 Climbing Los Angeles Center
Thu 01:30:19 PM 36.1281 -114.8075 125° Southeast 211 243 13,100 382 Climbing Los Angeles Center
Thu 01:31:21 PM 36.0658 -114.7636 150° Southeast 243 280 13,100  Level Los Angeles Center
Thu 01:32:23 PM 36.0350 -114.6875 117° Southeast 265 305 13,100  Level Los Angeles Center
Thu 01:33:25 PM 36.1081 -114.6244 35° Northeast 301 346 13,100 823 Level Los Angeles Center
Thu 01:34:27 PM 36.1894 -114.6192 North 302 348 14,800 1,776 Climbing Los Angeles Center
Thu 01:35:30 PM 36.2194 -114.5550 60° Northeast 255 293 16,800 1,571 Climbing Los Angeles Center
Thu 01:36:33 PM 36.2128 -114.4764 96° East 233 268 18,100 1,210 Climbing Los Angeles Center
Thu 01:37:34 PM 36.2056 -114.3925 96° East 241 277 19,300 1,171 Climbing Los Angeles Center
Thu 01:38:36 PM 36.1989 -114.3056 95° East 249 287 20,500 1,248 Climbing Los Angeles Center
Thu 01:39:39 PM 36.2061 -114.2008 85° East 264 304 21,900 1,258 Climbing Los Angeles Center
Thu 01:40:40 PM 36.2336 -114.1172 68° East 266 306 23,100 1,122 Climbing Los Angeles Center
Thu 01:41:42 PM 36.2606 -114.0322 69° East 267 307 24,200 1,113 Climbing Los Angeles Center
Thu 01:42:44 PM 36.2900 -113.9464 67° East 268 308 25,400 1,095 Climbing Los Angeles Center
Thu 01:43:48 PM 36.3189 -113.8586 68° East 272 313 26,500 926 Climbing Los Angeles Center
Thu 01:45:00 PM 36.3481 -113.7681 68° East 280 322 27,500 1,022 Climbing Los Angeles Center
Thu 01:46:03 PM 36.3894 -113.6408 68° East 283 326 28,800 1,056 Climbing Los Angeles Center
Thu 01:47:05 PM 36.4197 -113.5492 68° East 286 329 29,700 823 Climbing Los Angeles Center
Thu 01:48:07 PM 36.4500 -113.4556 68° East 290 334 30,500 823 Climbing Los Angeles Center
Thu 01:49:09 PM 36.4811 -113.3600 68° East 297 342 31,400 768 Climbing Los Angeles Center
Thu 01:50:12 PM 36.5125 -113.2625 68° East 301 346 32,100 768 Climbing Los Angeles Center
Thu 01:51:14 PM 36.5439 -113.1656 68° East 302 348 33,000 435 Climbing Los Angeles Center
Thu 01:52:16 PM 36.5822 -113.0447 68° East 310 357 33,000  Level Los Angeles Center
Thu 01:53:18 PM 36.6183 -112.9350 68° East 332 382 33,000  Level Los Angeles Center
Thu 01:54:20 PM 36.6433 -112.8553 69° East 344 396 33,000  Level Los Angeles Center
Thu 01:55:22 PM 36.6939 -112.6964 68° East 353 406 33,000  Level Los Angeles Center
Thu 01:56:24 PM 36.7303 -112.5833 68° East 354 407 33,000  Level Los Angeles Center
Thu 01:57:26 PM 36.7650 -112.4700 69° East 353 406 33,000  Level Los Angeles Center
Thu 01:58:28 PM 36.8008 -112.3569 68° East 352 405 33,000  Level Los Angeles Center
Thu 01:59:33 PM 36.8361 -112.2436 69° East 352 405 33,000  Level Los Angeles Center
Thu 02:00:33 PM 36.8708 -112.1308 69° East 351 404 33,000  Level Los Angeles Center
Thu 02:01:35 PM 36.9125 -111.9958 69° East 350 403 33,000  Level Los Angeles Center
Thu 02:02:37 PM 36.9467 -111.8814 69° East 352 405 33,000  Level Los Angeles Center
Thu 02:03:39 PM 36.9828 -111.7678 68° East 353 406 33,000  Level Los Angeles Center
Thu 02:04:41 PM 37.0175 -111.6531 69° East 354 407 33,000  Level Los Angeles Center
Thu 02:05:18 PM 37.0442 -111.5667 69° East 354 407 33,000  Level Denver Center
Thu 02:06:20 PM 37.0772 -111.4553 70° East 355 409 33,000  Level Denver Center
Thu 02:07:21 PM 37.1064 -111.3622 69° East 356 410 33,000  Level Denver Center
Thu 02:08:24 PM 37.1508 -111.2158 69° East 353 406 33,000  Level Denver Center
Thu 02:09:26 PM 37.1847 -111.1033 69° East 358 412 33,000  Level Denver Center
Thu 02:10:28 PM 37.2236 -110.9714 70° East 357 411 33,000  Level Denver Center
Thu 02:11:42 PM 37.2561 -110.8600 70° East 356 410 33,000  Level Denver Center
Thu 02:12:45 PM 37.3017 -110.7100 69° East 360 414 33,000  Level Denver Center
Thu 02:13:47 PM 37.3339 -110.5975 70° East 358 412 33,000  Level Denver Center
Thu 02:14:49 PM 37.3725 -110.4647 70° East 361 415 33,000  Level Denver Center
Thu 02:15:51 PM 37.4064 -110.3506 69° East 363 418 33,000  Level Denver Center
Thu 02:16:53 PM 37.4442 -110.2175 70° East 363 418 33,000  Level Denver Center
Thu 02:17:55 PM 37.4792 -110.1028 69° East 365 420 33,000  Level Denver Center
Thu 02:18:57 PM 37.5169 -109.9683 70° East 365 420 33,000 -435 Level Denver Center
Thu 02:19:59 PM 37.5511 -109.8489 70° East 367 422 32,100 -1,016 Descending Denver Center
Thu 02:21:01 PM 37.5917 -109.7053 70° East 380 437 30,900 -1,016 Descending Denver Center
Thu 02:22:03 PM 37.6286 -109.5781 70° East 392 451 30,000 -968 Descending Denver Center
Thu 02:23:05 PM 37.6681 -109.4358 71° East 389 448 28,900 -1,008 Descending Denver Center
Thu 02:24:08 PM 37.7019 -109.3169 70° East 380 437 27,900 -912 Descending Denver Center
Thu 02:25:10 PM 37.7417 -109.1761 70° East 380 437 27,000 -435 Descending Denver Center
Thu 02:26:12 PM 37.7750 -109.0556 71° East 381 438 27,000  Level Denver Center
Thu 02:27:14 PM 37.8161 -108.9217 69° East 373 429 27,000  Level Denver Center
Thu 02:28:28 PM 37.8800 -108.8311 48° Northeast 361 415 27,000 -1,015 Level Denver Center
Thu 02:29:30 PM 37.9644 -108.7047 50° Northeast 365 420 24,700 -2,129 Descending Denver Center
Thu 02:30:32 PM 38.0272 -108.6100 50° Northeast 366 421 22,600 -2,177 Descending Denver Center
Thu 02:31:34 PM 38.0958 -108.5081 49° Northeast 356 410 20,200 -2,208 Descending Denver Center
Thu 02:32:37 PM 38.1550 -108.4211 49° Northeast 341 392 18,000 -2,016 Descending Denver Center
Thu 02:33:39 PM 38.2139 -108.3356 49° Northeast 328 377 16,000 -2,226 Descending Denver Center
Thu 02:34:41 PM 38.2819 -108.2322 50° Northeast 320 368 13,400 -2,516 Descending Denver Center
Thu 02:36:00 PM 38.3477 -108.1202 50° Northeast  Level FlightAware Approximate
Thu 02:43:00 PM 38.5000 -107.8833 51° Northeast  Level FlightAware Approximate
Thu 02:44:00 PM 38.5098 -107.8942 51° Northeast  Level Estimated
Thu 02:45:00 PM 38.5098 -107.8942 51° Northeast  Level Estimated
Thu 02:46:00 PM 38.5098 -107.8942 51° Northeast  Level Estimated
Thu 02:47:00 PM 38.5098 -107.8942 51° Northeast  Level Estimated
Thu 02:48:00 PM 38.5098 -107.8942 51° Northeast  Level Estimated
Thu 02:49:00 PM 38.5098 -107.8942 51° Northeast  Level Estimated
Thu 02:50:00 PM 38.5098 -107.8942 51° Northeast  Level Estimated
Thu 02:51:00 PM 38.5098 -107.8942 51° Northeast  Level Estimated
Thu 02:52:00 PM 38.5098 -107.8942 51° Northeast  Level Estimated
Thu 02:53:00 PM 38.5098 -107.8942 51° Northeast  Level Estimated
Thu 02:54:00 PM 38.5098 -107.8942 51° Northeast  Level Estimated
Thu 02:55:00 PM 38.5098 -107.8942 51° Northeast  Level Estimated
Thu 02:56:00 PM 38.5098 -107.8942 51° Northeast  Level Estimated

Login

Don't have an account? Register now (free) for customized features, flight alerts, and more!